sensor_id;sensor_type;location;lat;lon;timestamp;pressure;altitude;pressure_sealevel;temperature;humidity
61742;BME280;47650;49.848;9.620;2022-07-23T00:01:20;99515.72;;;23.01;55.54
61742;BME280;47650;49.848;9.620;2022-07-23T00:03:45;99481.09;;;22.79;56.00
61742;BME280;47650;49.848;9.620;2022-07-23T00:06:11;99510.38;;;22.94;55.64
61742;BME280;47650;49.848;9.620;2022-07-23T00:08:38;99513.19;;;22.87;56.25
61742;BME280;47650;49.848;9.620;2022-07-23T00:11:09;99505.78;;;22.83;56.44
61742;BME280;47650;49.848;9.620;2022-07-23T00:13:35;99509.16;;;22.78;55.89
61742;BME280;47650;49.848;9.620;2022-07-23T00:16:00;99520.38;;;22.45;58.03
61742;BME280;47650;49.848;9.620;2022-07-23T00:18:26;99509.88;;;22.55;57.58
61742;BME280;47650;49.848;9.620;2022-07-23T00:20:51;99509.63;;;22.57;56.88
61742;BME280;47650;49.848;9.620;2022-07-23T00:23:18;99500.69;;;22.56;56.97
61742;BME280;47650;49.848;9.620;2022-07-23T00:25:44;99511.88;;;22.60;56.80
61742;BME280;47650;49.848;9.620;2022-07-23T00:28:10;99494.84;;;22.59;56.53
61742;BME280;47650;49.848;9.620;2022-07-23T00:30:36;99497.16;;;22.56;56.57
61742;BME280;47650;49.848;9.620;2022-07-23T00:33:05;99504.25;;;22.57;56.63
61742;BME280;47650;49.848;9.620;2022-07-23T00:35:33;99497.84;;;22.51;56.39
61742;BME280;47650;49.848;9.620;2022-07-23T00:38:02;99496.22;;;22.50;56.79
61742;BME280;47650;49.848;9.620;2022-07-23T00:40:28;99485.84;;;22.47;57.35
61742;BME280;47650;49.848;9.620;2022-07-23T00:42:55;99482.19;;;22.41;56.95
61742;BME280;47650;49.848;9.620;2022-07-23T00:45:21;99475.94;;;22.41;57.05
61742;BME280;47650;49.848;9.620;2022-07-23T00:47:46;99461.31;;;22.30;57.13
61742;BME280;47650;49.848;9.620;2022-07-23T00:50:12;99479.25;;;22.43;57.33
61742;BME280;47650;49.848;9.620;2022-07-23T00:52:39;99479.25;;;22.43;56.97
61742;BME280;47650;49.848;9.620;2022-07-23T00:55:06;99454.44;;;22.34;56.91
61742;BME280;47650;49.848;9.620;2022-07-23T00:57:32;99459.00;;;22.33;57.48
61742;BME280;47650;49.848;9.620;2022-07-23T00:59:59;99435.09;;;21.75;59.30
61742;BME280;47650;49.848;9.620;2022-07-23T01:02:25;99480.25;;;22.23;58.52
61742;BME280;47650;49.848;9.620;2022-07-23T01:04:51;99475.88;;;22.29;58.01
61742;BME280;47650;49.848;9.620;2022-07-23T01:07:16;99475.72;;;22.24;58.52
61742;BME280;47650;49.848;9.620;2022-07-23T01:09:42;99480.72;;;22.20;58.56
61742;BME280;47650;49.848;9.620;2022-07-23T01:12:09;99472.13;;;22.30;58.40
61742;BME280;47650;49.848;9.620;2022-07-23T01:14:36;99475.81;;;22.36;57.96
61742;BME280;47650;49.848;9.620;2022-07-23T01:17:02;99486.88;;;22.46;58.20
61742;BME280;47650;49.848;9.620;2022-07-23T01:19:28;99455.84;;;22.37;58.26
61742;BME280;47650;49.848;9.620;2022-07-23T01:21:54;99467.81;;;22.59;58.14
61742;BME280;47650;49.848;9.620;2022-07-23T01:24:21;99458.53;;;22.37;58.52
61742;BME280;47650;49.848;9.620;2022-07-23T01:26:48;99464.06;;;22.60;58.06
61742;BME280;47650;49.848;9.620;2022-07-23T01:29:14;99458.22;;;22.63;57.94
61742;BME280;47650;49.848;9.620;2022-07-23T01:31:41;99449.03;;;22.64;57.71
61742;BME280;47650;49.848;9.620;2022-07-23T01:34:07;99442.53;;;22.53;57.96
61742;BME280;47650;49.848;9.620;2022-07-23T01:36:34;99437.09;;;22.42;58.50
61742;BME280;47650;49.848;9.620;2022-07-23T01:38:59;99463.38;;;22.65;58.56
61742;BME280;47650;49.848;9.620;2022-07-23T01:41:26;99449.63;;;22.66;57.57
61742;BME280;47650;49.848;9.620;2022-07-23T01:43:54;99455.19;;;22.71;57.60
61742;BME280;47650;49.848;9.620;2022-07-23T01:46:19;99452.97;;;22.68;58.18
61742;BME280;47650;49.848;9.620;2022-07-23T01:48:44;99466.06;;;22.65;57.85
61742;BME280;47650;49.848;9.620;2022-07-23T01:51:10;99450.44;;;22.55;58.16
61742;BME280;47650;49.848;9.620;2022-07-23T01:53:35;99435.81;;;22.44;57.87
61742;BME280;47650;49.848;9.620;2022-07-23T01:56:02;99471.63;;;22.70;57.77
61742;BME280;47650;49.848;9.620;2022-07-23T01:58:29;99470.94;;;22.75;57.49
61742;BME280;47650;49.848;9.620;2022-07-23T02:00:55;99452.25;;;22.73;57.31
61742;BME280;47650;49.848;9.620;2022-07-23T02:03:21;99468.84;;;22.77;57.54
61742;BME280;47650;49.848;9.620;2022-07-23T02:05:46;99466.34;;;22.75;57.30
61742;BME280;47650;49.848;9.620;2022-07-23T02:08:11;99469.91;;;22.76;57.24
61742;BME280;47650;49.848;9.620;2022-07-23T02:10:37;99461.06;;;22.68;57.13
61742;BME280;47650;49.848;9.620;2022-07-23T02:13:02;99435.19;;;22.42;57.31
61742;BME280;47650;49.848;9.620;2022-07-23T02:15:29;99455.25;;;22.53;57.75
61742;BME280;47650;49.848;9.620;2022-07-23T02:17:55;99471.31;;;22.48;58.02
61742;BME280;47650;49.848;9.620;2022-07-23T02:20:21;99458.03;;;22.28;58.03
61742;BME280;47650;49.848;9.620;2022-07-23T02:22:52;99454.50;;;22.27;58.02
61742;BME280;47650;49.848;9.620;2022-07-23T02:25:18;99442.78;;;22.15;58.16
61742;BME280;47650;49.848;9.620;2022-07-23T02:27:43;99468.72;;;22.16;58.43
61742;BME280;47650;49.848;9.620;2022-07-23T02:30:09;99469.63;;;22.10;59.30
61742;BME280;47650;49.848;9.620;2022-07-23T02:32:36;99465.63;;;22.12;59.25
61742;BME280;47650;49.848;9.620;2022-07-23T02:35:03;99447.50;;;22.01;59.02
61742;BME280;47650;49.848;9.620;2022-07-23T02:37:34;99418.31;;;21.91;58.89
61742;BME280;47650;49.848;9.620;2022-07-23T02:40:05;99463.75;;;22.13;58.64
61742;BME280;47650;49.848;9.620;2022-07-23T02:42:33;99458.97;;;22.15;58.95
61742;BME280;47650;49.848;9.620;2022-07-23T02:44:58;99452.88;;;22.20;58.86
61742;BME280;47650;49.848;9.620;2022-07-23T02:47:23;99454.50;;;22.27;58.79
61742;BME280;47650;49.848;9.620;2022-07-23T02:49:49;99455.09;;;22.29;58.71
61742;BME280;47650;49.848;9.620;2022-07-23T02:52:14;99440.38;;;22.25;58.82
61742;BME280;47650;49.848;9.620;2022-07-23T02:54:39;99434.81;;;22.39;58.48
61742;BME280;47650;49.848;9.620;2022-07-23T02:57:05;99422.97;;;22.21;58.63
61742;BME280;47650;49.848;9.620;2022-07-23T02:59:31;99440.09;;;22.33;59.09
61742;BME280;47650;49.848;9.620;2022-07-23T03:01:56;99431.84;;;22.28;59.05
61742;BME280;47650;49.848;9.620;2022-07-23T03:04:22;99437.53;;;22.20;58.65
61742;BME280;47650;49.848;9.620;2022-07-23T03:06:53;99436.75;;;22.13;59.08
61742;BME280;47650;49.848;9.620;2022-07-23T03:09:19;99438.88;;;22.11;59.55
61742;BME280;47650;49.848;9.620;2022-07-23T03:11:44;99443.81;;;22.14;59.87
61742;BME280;47650;49.848;9.620;2022-07-23T03:14:09;99457.91;;;22.16;59.51
61742;BME280;47650;49.848;9.620;2022-07-23T03:16:38;99464.53;;;22.20;60.05
61742;BME280;47650;49.848;9.620;2022-07-23T03:19:03;99475.34;;;22.20;59.79
61742;BME280;47650;49.848;9.620;2022-07-23T03:21:30;99465.63;;;22.12;59.69
61742;BME280;47650;49.848;9.620;2022-07-23T03:23:55;99483.59;;;22.25;59.58
61742;BME280;47650;49.848;9.620;2022-07-23T03:26:20;99483.34;;;22.27;59.72
61742;BME280;47650;49.848;9.620;2022-07-23T03:28:51;99483.59;;;22.25;59.48
61742;BME280;47650;49.848;9.620;2022-07-23T03:31:17;99497.88;;;22.32;59.18
61742;BME280;47650;49.848;9.620;2022-07-23T03:33:44;99482.09;;;22.29;59.77
61742;BME280;47650;49.848;9.620;2022-07-23T03:36:10;99487.66;;;22.34;59.33
61742;BME280;47650;49.848;9.620;2022-07-23T03:38:36;99505.06;;;22.39;59.27
61742;BME280;47650;49.848;9.620;2022-07-23T03:41:02;99506.94;;;22.38;59.49
61742;BME280;47650;49.848;9.620;2022-07-23T03:43:27;99506.56;;;22.34;58.51
61742;BME280;47650;49.848;9.620;2022-07-23T03:45:54;99475.63;;;22.12;59.48
61742;BME280;47650;49.848;9.620;2022-07-23T03:48:22;99510.19;;;22.03;61.26
61742;BME280;47650;49.848;9.620;2022-07-23T03:50:47;99520.38;;;22.01;60.74
61742;BME280;47650;49.848;9.620;2022-07-23T03:53:12;99514.72;;;21.27;63.79
61742;BME280;47650;49.848;9.620;2022-07-23T03:55:44;99510.63;;;21.75;63.08
61742;BME280;47650;49.848;9.620;2022-07-23T03:58:10;99521.91;;;21.90;62.25
61742;BME280;47650;49.848;9.620;2022-07-23T04:00:36;99506.50;;;21.97;61.87
61742;BME280;47650;49.848;9.620;2022-07-23T04:03:03;99510.28;;;22.15;61.13
61742;BME280;47650;49.848;9.620;2022-07-23T04:05:29;99485.44;;;22.25;60.76
61742;BME280;47650;49.848;9.620;2022-07-23T04:08:04;99481.09;;;22.24;61.07
61742;BME280;47650;49.848;9.620;2022-07-23T04:10:29;99468.72;;;22.16;61.34
61742;BME280;47650;49.848;9.620;2022-07-23T04:12:54;99436.19;;;21.92;61.23
61742;BME280;47650;49.848;9.620;2022-07-23T04:15:20;99479.69;;;22.03;61.79
61742;BME280;47650;49.848;9.620;2022-07-23T04:17:51;99474.34;;;21.96;61.88
61742;BME280;47650;49.848;9.620;2022-07-23T04:20:16;99475.00;;;21.91;62.22
61742;BME280;47650;49.848;9.620;2022-07-23T04:22:42;99480.41;;;21.91;62.45
61742;BME280;47650;49.848;9.620;2022-07-23T04:25:07;99492.38;;;21.52;63.18
61742;BME280;47650;49.848;9.620;2022-07-23T04:27:33;99505.16;;;21.63;64.22
61742;BME280;47650;49.848;9.620;2022-07-23T04:29:58;99499.94;;;21.68;63.09
61742;BME280;47650;49.848;9.620;2022-07-23T04:32:29;99500.16;;;21.85;63.32
61742;BME280;47650;49.848;9.620;2022-07-23T04:34:55;99518.56;;;21.95;62.77
61742;BME280;47650;49.848;9.620;2022-07-23T04:37:20;99534.38;;;22.16;62.52
61742;BME280;47650;49.848;9.620;2022-07-23T04:39:47;99553.94;;;21.62;64.83
61742;BME280;47650;49.848;9.620;2022-07-23T04:42:12;99551.75;;;21.77;65.03
61742;BME280;47650;49.848;9.620;2022-07-23T04:44:37;99546.31;;;22.27;64.01
61742;BME280;47650;49.848;9.620;2022-07-23T04:47:03;99532.00;;;22.45;62.97
61742;BME280;47650;49.848;9.620;2022-07-23T04:49:28;99530.25;;;22.51;62.26
61742;BME280;47650;49.848;9.620;2022-07-23T04:51:53;99520.44;;;22.38;62.65
61742;BME280;47650;49.848;9.620;2022-07-23T04:54:18;99514.97;;;22.63;62.44
61742;BME280;47650;49.848;9.620;2022-07-23T04:56:44;99512.06;;;22.77;61.51
61742;BME280;47650;49.848;9.620;2022-07-23T04:59:09;99506.50;;;22.90;61.27
61742;BME280;47650;49.848;9.620;2022-07-23T05:01:34;99507.16;;;23.04;60.89
61742;BME280;47650;49.848;9.620;2022-07-23T05:04:00;99521.13;;;23.01;60.36
61742;BME280;47650;49.848;9.620;2022-07-23T05:06:26;99524.59;;;23.08;59.59
61742;BME280;47650;49.848;9.620;2022-07-23T05:08:51;99540.34;;;23.11;59.35
61742;BME280;47650;49.848;9.620;2022-07-23T05:11:18;99521.13;;;23.01;59.36
61742;BME280;47650;49.848;9.620;2022-07-23T05:13:43;99542.16;;;23.17;59.15
61742;BME280;47650;49.848;9.620;2022-07-23T05:16:08;99536.03;;;23.22;58.85
61742;BME280;47650;49.848;9.620;2022-07-23T05:18:34;99550.31;;;23.29;58.98
61742;BME280;47650;49.848;9.620;2022-07-23T05:20:59;99570.06;;;23.30;58.07
61742;BME280;47650;49.848;9.620;2022-07-23T05:23:25;99571.34;;;23.27;58.04
61742;BME280;47650;49.848;9.620;2022-07-23T05:25:51;99589.09;;;23.23;58.20
61742;BME280;47650;49.848;9.620;2022-07-23T05:28:18;99602.09;;;23.14;58.69
61742;BME280;47650;49.848;9.620;2022-07-23T05:30:44;99606.38;;;22.85;59.67
61742;BME280;47650;49.848;9.620;2022-07-23T05:33:09;99603.22;;;22.51;61.26
61742;BME280;47650;49.848;9.620;2022-07-23T05:35:34;99608.75;;;22.38;61.67
61742;BME280;47650;49.848;9.620;2022-07-23T05:38:00;99638.94;;;21.71;65.10
61742;BME280;47650;49.848;9.620;2022-07-23T05:40:27;99604.13;;;21.63;66.18
61742;BME280;47650;49.848;9.620;2022-07-23T05:42:52;99635.56;;;21.82;66.46
61742;BME280;47650;49.848;9.620;2022-07-23T05:45:17;99612.41;;;21.68;66.52
61742;BME280;47650;49.848;9.620;2022-07-23T05:47:44;99642.56;;;21.90;66.00
61742;BME280;47650;49.848;9.620;2022-07-23T05:50:11;99634.16;;;21.34;66.55
61742;BME280;47650;49.848;9.620;2022-07-23T05:52:38;99640.69;;;21.90;64.95
61742;BME280;47650;49.848;9.620;2022-07-23T05:55:05;99639.56;;;22.05;64.30
61742;BME280;47650;49.848;9.620;2022-07-23T05:57:31;99646.88;;;21.97;63.75
61742;BME280;47650;49.848;9.620;2022-07-23T05:59:56;99629.28;;;21.56;63.81
61742;BME280;47650;49.848;9.620;2022-07-23T06:02:21;99652.00;;;22.06;62.92
61742;BME280;47650;49.848;9.620;2022-07-23T06:04:47;99657.22;;;22.01;62.55
61742;BME280;47650;49.848;9.620;2022-07-23T06:07:12;99649.75;;;21.71;63.19
61742;BME280;47650;49.848;9.620;2022-07-23T06:09:39;99644.34;;;22.03;62.36
61742;BME280;47650;49.848;9.620;2022-07-23T06:12:07;99651.28;;;22.17;61.96
61742;BME280;47650;49.848;9.620;2022-07-23T06:14:33;99646.59;;;22.06;62.05
61742;BME280;47650;49.848;9.620;2022-07-23T06:16:58;99651.97;;;22.38;60.75
61742;BME280;47650;49.848;9.620;2022-07-23T06:19:24;99654.97;;;21.97;62.00
61742;BME280;47650;49.848;9.620;2022-07-23T06:21:50;99641.81;;;21.76;62.14
61742;BME280;47650;49.848;9.620;2022-07-23T06:24:15;99654.34;;;21.64;62.70
61742;BME280;47650;49.848;9.620;2022-07-23T06:26:42;99673.50;;;21.55;63.24
61742;BME280;47650;49.848;9.620;2022-07-23T06:29:08;99669.38;;;21.53;63.61
61742;BME280;47650;49.848;9.620;2022-07-23T06:31:41;99663.19;;;21.39;64.47
61742;BME280;47650;49.848;9.620;2022-07-23T06:34:06;99650.31;;;21.48;66.17
61742;BME280;47650;49.848;9.620;2022-07-23T06:36:31;99656.69;;;21.01;65.83
61742;BME280;47650;49.848;9.620;2022-07-23T06:39:05;99680.78;;;21.48;66.50
61742;BME280;47650;49.848;9.620;2022-07-23T06:41:31;99668.38;;;20.75;67.40
61742;BME280;47650;49.848;9.620;2022-07-23T06:43:57;99681.56;;;21.03;67.88
61742;BME280;47650;49.848;9.620;2022-07-23T06:46:23;99679.06;;;21.02;66.82
61742;BME280;47650;49.848;9.620;2022-07-23T06:48:50;99677.66;;;21.51;65.37
61742;BME280;47650;49.848;9.620;2022-07-23T06:51:15;99679.09;;;21.54;66.40
61742;BME280;47650;49.848;9.620;2022-07-23T06:53:41;99668.53;;;21.52;66.23
61742;BME280;47650;49.848;9.620;2022-07-23T06:56:07;99671.59;;;21.94;65.14
61742;BME280;47650;49.848;9.620;2022-07-23T06:58:34;99675.00;;;21.83;64.33
61742;BME280;47650;49.848;9.620;2022-07-23T07:01:03;99655.25;;;21.89;63.83
61742;BME280;47650;49.848;9.620;2022-07-23T07:03:34;99667.09;;;21.82;63.80
61742;BME280;47650;49.848;9.620;2022-07-23T07:06:19;99651.97;;;22.38;62.86
61742;BME280;47650;49.848;9.620;2022-07-23T07:08:46;99661.31;;;22.60;62.15
61742;BME280;47650;49.848;9.620;2022-07-23T07:11:11;99657.59;;;22.80;62.02
61742;BME280;47650;49.848;9.620;2022-07-23T07:13:43;99669.59;;;23.02;61.19
61742;BME280;47650;49.848;9.620;2022-07-23T07:16:10;99671.38;;;23.15;60.70
61742;BME280;47650;49.848;9.620;2022-07-23T07:18:37;99674.25;;;22.77;61.13
61742;BME280;47650;49.848;9.620;2022-07-23T07:21:07;99678.13;;;23.24;59.69
61742;BME280;47650;49.848;9.620;2022-07-23T07:23:32;99672.50;;;23.07;59.81
61742;BME280;47650;49.848;9.620;2022-07-23T07:25:58;99659.31;;;23.48;58.50
61742;BME280;47650;49.848;9.620;2022-07-23T07:28:23;99689.50;;;23.94;57.61
61742;BME280;47650;49.848;9.620;2022-07-23T07:30:51;99687.34;;;24.26;56.73
61742;BME280;47650;49.848;9.620;2022-07-23T07:33:16;99682.06;;;24.67;55.53
61742;BME280;47650;49.848;9.620;2022-07-23T07:35:41;99681.28;;;24.00;56.28
61742;BME280;47650;49.848;9.620;2022-07-23T07:38:06;99690.44;;;24.65;54.62
61742;BME280;47650;49.848;9.620;2022-07-23T07:40:33;99684.31;;;24.82;54.50
61742;BME280;47650;49.848;9.620;2022-07-23T07:42:59;99685.84;;;24.89;54.28
61742;BME280;47650;49.848;9.620;2022-07-23T07:45:24;99675.75;;;25.13;53.67
61742;BME280;47650;49.848;9.620;2022-07-23T07:47:51;99691.44;;;24.17;55.48
61742;BME280;47650;49.848;9.620;2022-07-23T07:50:18;99692.16;;;25.30;52.97
61742;BME280;47650;49.848;9.620;2022-07-23T07:52:43;99694.09;;;24.94;53.15
61742;BME280;47650;49.848;9.620;2022-07-23T07:55:11;99700.13;;;25.78;51.33
61742;BME280;47650;49.848;9.620;2022-07-23T07:57:37;99720.66;;;25.45;52.49
61742;BME280;47650;49.848;9.620;2022-07-23T08:00:06;99725.75;;;25.41;52.20
61742;BME280;47650;49.848;9.620;2022-07-23T08:02:46;99708.31;;;25.13;53.23
61742;BME280;47650;49.848;9.620;2022-07-23T08:05:13;99713.63;;;26.52;49.71
61742;BME280;47650;49.848;9.620;2022-07-23T08:07:39;99723.41;;;24.50;53.39
61742;BME280;47650;49.848;9.620;2022-07-23T08:10:12;99733.88;;;25.53;52.03
61742;BME280;47650;49.848;9.620;2022-07-23T08:12:45;99728.13;;;26.24;50.32
61742;BME280;47650;49.848;9.620;2022-07-23T08:15:13;99723.22;;;25.92;50.54
61742;BME280;47650;49.848;9.620;2022-07-23T08:17:38;99735.63;;;25.59;51.43
61742;BME280;47650;49.848;9.620;2022-07-23T08:20:05;99733.38;;;25.56;51.37
61742;BME280;47650;49.848;9.620;2022-07-23T08:25:49;99729.25;;;25.94;50.13
61742;BME280;47650;49.848;9.620;2022-07-23T08:28:15;99734.72;;;25.42;51.40
61742;BME280;47650;49.848;9.620;2022-07-23T08:30:44;99736.75;;;24.10;54.22
61742;BME280;47650;49.848;9.620;2022-07-23T08:33:12;99741.84;;;23.88;55.52
61742;BME280;47650;49.848;9.620;2022-07-23T08:35:46;99750.75;;;23.95;55.18
61742;BME280;47650;49.848;9.620;2022-07-23T08:38:19;99748.44;;;24.88;52.88
61742;BME280;47650;49.848;9.620;2022-07-23T08:40:46;99744.81;;;24.28;54.52
61742;BME280;47650;49.848;9.620;2022-07-23T08:43:18;99752.81;;;24.23;54.05
61742;BME280;47650;49.848;9.620;2022-07-23T08:45:47;99752.00;;;24.88;53.21
61742;BME280;47650;49.848;9.620;2022-07-23T08:48:20;99741.69;;;25.14;51.78
61742;BME280;47650;49.848;9.620;2022-07-23T08:50:50;99757.53;;;24.93;52.51
61742;BME280;47650;49.848;9.620;2022-07-23T08:53:18;99760.69;;;25.26;52.10
61742;BME280;47650;49.848;9.620;2022-07-23T08:55:48;99755.38;;;25.19;51.89
61742;BME280;47650;49.848;9.620;2022-07-23T08:58:14;99753.66;;;25.65;50.58
61742;BME280;47650;49.848;9.620;2022-07-23T09:00:39;99734.34;;;26.07;49.08
61742;BME280;47650;49.848;9.620;2022-07-23T09:03:04;99741.91;;;27.68;45.50
61742;BME280;47650;49.848;9.620;2022-07-23T09:05:32;99754.63;;;25.59;50.19
61742;BME280;47650;49.848;9.620;2022-07-23T09:10:56;99749.22;;;26.17;48.82
61742;BME280;47650;49.848;9.620;2022-07-23T09:13:24;99745.72;;;27.89;45.47
61742;BME280;47650;49.848;9.620;2022-07-23T09:15:51;99735.81;;;29.13;42.37
61742;BME280;47650;49.848;9.620;2022-07-23T09:26:26;99727.19;;;31.62;36.06
61742;BME280;47650;49.848;9.620;2022-07-23T09:31:25;99710.19;;;34.55;30.98
61742;BME280;47650;49.848;9.620;2022-07-23T09:33:51;99708.88;;;35.64;28.95
61742;BME280;47650;49.848;9.620;2022-07-23T09:36:27;99698.09;;;37.38;26.63
61742;BME280;47650;49.848;9.620;2022-07-23T09:38:52;99705.13;;;36.41;27.72
61742;BME280;47650;49.848;9.620;2022-07-23T09:41:17;99680.88;;;37.76;26.40
61742;BME280;47650;49.848;9.620;2022-07-23T09:43:54;99703.94;;;35.38;29.25
61742;BME280;47650;49.848;9.620;2022-07-23T09:46:21;99711.56;;;35.55;29.30
61742;BME280;47650;49.848;9.620;2022-07-23T09:48:47;99695.91;;;34.53;30.16
61742;BME280;47650;49.848;9.620;2022-07-23T09:51:13;99707.31;;;32.84;33.77
61742;BME280;47650;49.848;9.620;2022-07-23T09:54:00;99718.16;;;32.07;35.19
61742;BME280;47650;49.848;9.620;2022-07-23T09:56:27;99707.50;;;32.69;33.07
61742;BME280;47650;49.848;9.620;2022-07-23T09:58:53;99711.22;;;31.70;34.79
61742;BME280;47650;49.848;9.620;2022-07-23T10:01:31;99716.72;;;29.81;38.94
61742;BME280;47650;49.848;9.620;2022-07-23T10:03:57;99718.72;;;30.47;37.58
61742;BME280;47650;49.848;9.620;2022-07-23T10:06:23;99677.84;;;31.62;35.41
61742;BME280;47650;49.848;9.620;2022-07-23T10:08:50;99697.19;;;34.09;31.54
61742;BME280;47650;49.848;9.620;2022-07-23T10:11:16;99690.38;;;37.17;26.64
61742;BME280;47650;49.848;9.620;2022-07-23T10:13:42;99683.31;;;38.21;24.97
61742;BME280;47650;49.848;9.620;2022-07-23T10:16:15;99669.41;;;40.33;22.09
61742;BME280;47650;49.848;9.620;2022-07-23T10:18:41;99672.78;;;38.53;23.78
61742;BME280;47650;49.848;9.620;2022-07-23T10:21:07;99676.91;;;40.20;21.98
61742;BME280;47650;49.848;9.620;2022-07-23T10:23:48;99680.19;;;38.31;24.67
61742;BME280;47650;49.848;9.620;2022-07-23T10:26:32;99673.94;;;41.61;21.05
61742;BME280;47650;49.848;9.620;2022-07-23T10:29:23;99672.78;;;40.85;21.51
61742;BME280;47650;49.848;9.620;2022-07-23T10:37:47;99670.59;;;38.03;24.44
61742;BME280;47650;49.848;9.620;2022-07-23T10:40:16;99662.56;;;42.23;19.86
61742;BME280;47650;49.848;9.620;2022-07-23T10:42:47;99673.06;;;38.99;22.36
61742;BME280;47650;49.848;9.620;2022-07-23T10:45:33;99672.91;;;39.97;21.36
61742;BME280;47650;49.848;9.620;2022-07-23T10:48:25;99653.41;;;44.39;16.72
61742;BME280;47650;49.848;9.620;2022-07-23T10:51:24;99647.72;;;41.75;18.28
61742;BME280;47650;49.848;9.620;2022-07-23T10:56:46;99673.16;;;39.41;21.94
61742;BME280;47650;49.848;9.620;2022-07-23T10:59:06;99651.63;;;42.02;18.77
61742;BME280;47650;49.848;9.620;2022-07-23T11:01:36;99648.22;;;42.53;18.05
61742;BME280;47650;49.848;9.620;2022-07-23T11:04:03;99646.75;;;41.83;18.37
61742;BME280;47650;49.848;9.620;2022-07-23T11:09:42;99658.31;;;40.33;19.92
61742;BME280;47650;49.848;9.620;2022-07-23T11:17:38;99661.94;;;41.20;18.98
61742;BME280;47650;49.848;9.620;2022-07-23T11:22:46;99674.00;;;37.30;22.91
61742;BME280;47650;49.848;9.620;2022-07-23T11:25:35;99671.94;;;36.95;23.48
61742;BME280;47650;49.848;9.620;2022-07-23T11:28:11;99672.88;;;36.59;24.10
61742;BME280;47650;49.848;9.620;2022-07-23T11:30:40;99680.25;;;37.04;24.21
61742;BME280;47650;49.848;9.620;2022-07-23T11:35:40;99669.97;;;39.00;22.08
61742;BME280;47650;49.848;9.620;2022-07-23T11:38:17;99670.94;;;37.92;23.04
61742;BME280;47650;49.848;9.620;2022-07-23T11:40:54;99660.88;;;39.51;21.17
61742;BME280;47650;49.848;9.620;2022-07-23T11:43:21;99667.47;;;38.30;22.94
61742;BME280;47650;49.848;9.620;2022-07-23T11:45:53;99633.75;;;40.35;19.88
61742;BME280;47650;49.848;9.620;2022-07-23T11:48:26;99666.59;;;36.67;24.09
61742;BME280;47650;49.848;9.620;2022-07-23T11:50:53;99671.53;;;37.19;24.25
61742;BME280;47650;49.848;9.620;2022-07-23T11:53:29;99664.84;;;36.18;24.09
61742;BME280;47650;49.848;9.620;2022-07-23T11:56:06;99654.38;;;40.34;20.37
61742;BME280;47650;49.848;9.620;2022-07-23T11:58:32;99663.00;;;38.94;20.30
61742;BME280;47650;49.848;9.620;2022-07-23T12:00:58;99644.72;;;41.67;17.93
61742;BME280;47650;49.848;9.620;2022-07-23T12:03:23;99643.75;;;43.93;15.43
61742;BME280;47650;49.848;9.620;2022-07-23T12:05:48;99649.63;;;39.47;20.00
61742;BME280;47650;49.848;9.620;2022-07-23T12:08:16;99651.84;;;39.11;20.13
61742;BME280;47650;49.848;9.620;2022-07-23T12:10:43;99651.94;;;35.82;24.56
61742;BME280;47650;49.848;9.620;2022-07-23T12:13:12;99667.81;;;35.99;24.27
61742;BME280;47650;49.848;9.620;2022-07-23T12:15:47;99647.38;;;38.51;21.41
61742;BME280;47650;49.848;9.620;2022-07-23T12:18:17;99635.50;;;36.22;23.73
61742;BME280;47650;49.848;9.620;2022-07-23T12:20:46;99661.28;;;36.40;23.55
61742;BME280;47650;49.848;9.620;2022-07-23T12:23:14;99653.53;;;36.91;22.92
61742;BME280;47650;49.848;9.620;2022-07-23T12:25:42;99644.53;;;37.34;22.66
61742;BME280;47650;49.848;9.620;2022-07-23T12:28:13;99647.72;;;38.41;20.92
61742;BME280;47650;49.848;9.620;2022-07-23T12:30:52;99649.59;;;37.40;21.70
61742;BME280;47650;49.848;9.620;2022-07-23T12:33:31;99624.91;;;38.82;20.21
61742;BME280;47650;49.848;9.620;2022-07-23T12:36:01;99649.03;;;36.63;22.42
61742;BME280;47650;49.848;9.620;2022-07-23T12:38:42;99655.00;;;35.44;23.98
61742;BME280;47650;49.848;9.620;2022-07-23T12:41:18;99648.59;;;36.70;23.12
61742;BME280;47650;49.848;9.620;2022-07-23T12:43:45;99626.16;;;39.44;19.41
61742;BME280;47650;49.848;9.620;2022-07-23T12:46:14;99631.13;;;41.25;17.51
61742;BME280;47650;49.848;9.620;2022-07-23T12:51:15;99636.94;;;38.48;19.63
61742;BME280;47650;49.848;9.620;2022-07-23T12:53:43;99640.50;;;37.57;21.22
61742;BME280;47650;49.848;9.620;2022-07-23T12:56:14;99645.25;;;36.99;21.63
61742;BME280;47650;49.848;9.620;2022-07-23T12:58:53;99636.91;;;37.39;21.64
61742;BME280;47650;49.848;9.620;2022-07-23T13:06:39;99627.13;;;38.03;19.94
61742;BME280;47650;49.848;9.620;2022-07-23T13:09:08;99650.78;;;37.83;20.03
61742;BME280;47650;49.848;9.620;2022-07-23T13:11:34;99650.31;;;37.06;21.31
61742;BME280;47650;49.848;9.620;2022-07-23T13:14:00;99639.88;;;36.85;21.32
61742;BME280;47650;49.848;9.620;2022-07-23T13:16:28;99644.78;;;38.84;20.18
61742;BME280;47650;49.848;9.620;2022-07-23T13:18:54;99641.09;;;39.31;19.21
61742;BME280;47650;49.848;9.620;2022-07-23T13:21:21;99653.03;;;35.58;23.46
61742;BME280;47650;49.848;9.620;2022-07-23T13:23:47;99649.69;;;36.29;22.88
61742;BME280;47650;49.848;9.620;2022-07-23T13:26:13;99648.88;;;39.38;19.26
61742;BME280;47650;49.848;9.620;2022-07-23T13:28:41;99643.56;;;39.03;19.13
61742;BME280;47650;49.848;9.620;2022-07-23T13:31:07;99647.03;;;36.86;21.53
61742;BME280;47650;49.848;9.620;2022-07-23T13:33:33;99638.09;;;36.49;21.74
61742;BME280;47650;49.848;9.620;2022-07-23T13:35:58;99646.59;;;36.62;22.49
61742;BME280;47650;49.848;9.620;2022-07-23T13:38:24;99631.88;;;33.82;25.48
61742;BME280;47650;49.848;9.620;2022-07-23T13:40:50;99664.34;;;36.38;22.90
61742;BME280;47650;49.848;9.620;2022-07-23T13:43:18;99653.84;;;37.99;20.49
61742;BME280;47650;49.848;9.620;2022-07-23T13:45:44;99658.25;;;38.94;19.94
61742;BME280;47650;49.848;9.620;2022-07-23T13:48:10;99661.28;;;39.40;19.65
61742;BME280;47650;49.848;9.620;2022-07-23T13:50:36;99656.28;;;37.92;19.68